Time;durP1;ratioP1;P1;durP2;ratioP2;P2;SDS_P1;SDS_P2;PMS_P1;PMS_P2;Temp;Humidity;BMP_temperature;BMP_pressure;BME280_temperature;BME280_humidity;BME280_pressure;Samples;Min_cycle;Max_cycle;Signal;HPM_P1;HPM_P2
2023/10/11 00:01:22;;;;;;;37.70;22.30;;;;;;;9.11;97.05;100899.77;105887;1265;97974;-83
2023/10/11 00:04:23;;;;;;;37.70;22.20;;;;;;;9.12;97.46;100903.23;105905;1259;97958;-83
2023/10/11 00:07:09;;;;;;;;;;;;;;;9.13;97.67;100899.38;105671;1265;97973;-84
2023/10/11 00:09:55;;;;;;;37.80;21.40;;;;;;;9.12;98.02;100893.17;105762;1259;101367;-84
2023/10/11 00:12:41;;;;;;;39.90;22.20;;;;;;;9.14;97.89;100890.00;105780;1263;100424;-83
2023/10/11 00:15:29;;;;;;;37.10;23.10;;;;;;;9.15;97.87;100884.81;105778;1263;97980;-83
2023/10/11 00:18:18;;;;;;;35.80;21.80;;;;;;;9.17;98.00;100880.52;105777;1260;99324;-84
2023/10/11 00:21:10;;;;;;;36.10;22.90;;;;;;;9.18;97.81;100879.19;105867;1259;97881;-83
2023/10/11 00:23:55;;;;;;;37.50;21.80;;;;;;;9.18;97.92;100878.46;105793;1265;101549;-83
2023/10/11 00:26:44;;;;;;;41.80;22.60;;;;;;;9.19;98.12;100871.79;105673;1265;100509;-83
2023/10/11 00:29:29;;;;;;;35.50;21.70;;;;;;;9.20;97.99;100869.55;105656;1259;98031;-83
2023/10/11 00:32:15;;;;;;;41.40;23.40;;;;;;;9.21;98.24;100862.66;105816;1259;98059;-82
2023/10/11 00:35:00;;;;;;;38.30;22.00;;;;;;;9.22;98.28;100862.19;105959;1264;97848;-83
2023/10/11 00:37:51;;;;;;;39.90;22.20;;;;;;;9.23;98.59;100860.28;105819;1265;101368;-83
2023/10/11 00:40:37;;;;;;;42.20;23.80;;;;;;;9.23;98.85;100853.63;105693;1260;99202;-84
2023/10/11 00:43:35;;;;;;;39.70;22.10;;;;;;;9.23;98.81;100850.05;105777;1264;97944;-85
2023/10/11 00:46:29;;;;;;;40.30;22.70;;;;;;;9.24;99.03;100842.86;105651;1265;97965;-84
2023/10/11 00:49:14;;;;;;;37.20;22.50;;;;;;;9.25;99.30;100838.78;108184;1259;95194;-85
2023/10/11 00:52:04;;;;;;;40.00;23.00;;;;;;;9.28;99.28;100840.15;106100;1259;101464;-85
2023/10/11 00:54:50;;;;;;;43.40;23.80;;;;;;;9.29;99.48;100836.41;105903;1260;99697;-85
2023/10/11 00:57:36;;;;;;;40.30;22.50;;;;;;;9.30;99.72;100832.55;105831;1264;98398;-83
2023/10/11 01:00:23;;;;;;;39.60;22.20;;;;;;;9.31;99.71;100834.38;105825;1260;98090;-85
2023/10/11 01:03:09;;;;;;;41.30;24.20;;;;;;;9.32;99.53;100828.95;106003;1263;98402;-84
2023/10/11 01:05:55;;;;;;;43.80;23.70;;;;;;;9.34;99.92;100825.85;105718;1259;101526;-83
2023/10/11 01:08:41;;;;;;;42.80;23.80;;;;;;;9.37;100.00;100825.98;105752;1259;99114;-84
2023/10/11 01:11:28;;;;;;;39.30;22.20;;;;;;;9.37;100.00;100822.33;105844;1259;97870;-84
2023/10/11 01:14:14;;;;;;;42.70;23.40;;;;;;;9.39;100.00;100817.69;105842;1264;97982;-84
2023/10/11 01:17:00;;;;;;;43.20;23.60;;;;;;;9.40;100.00;100818.05;105869;1264;97923;-84
2023/10/11 01:19:46;;;;;;;47.20;25.90;;;;;;;9.42;100.00;100816.64;105910;1259;101419;-83
2023/10/11 01:22:31;;;;;;;39.10;22.30;;;;;;;9.43;100.00;100814.72;105889;1262;99315;-81
2023/10/11 01:25:18;;;;;;;46.30;23.70;;;;;;;9.44;100.00;100812.95;106130;1259;97896;-84
2023/10/11 01:28:05;;;;;;;45.50;24.30;;;;;;;9.46;100.00;100809.17;105826;1261;97976;-84
2023/10/11 01:30:51;;;;;;;45.20;23.90;;;;;;;9.48;100.00;100807.68;105767;1259;98490;-84
2023/10/11 01:33:43;;;;;;;49.50;25.60;;;;;;;9.50;100.00;100807.98;105891;1260;101512;-84
2023/10/11 01:36:29;;;;;;;;;;;;;;;9.53;100.00;100807.34;105919;1259;100181;-84
2023/10/11 01:39:15;;;;;;;41.30;23.60;;;;;;;9.54;100.00;100806.20;105762;1259;97903;-84
2023/10/11 01:42:01;;;;;;;49.50;24.60;;;;;;;9.56;100.00;100804.14;106005;1260;98815;-83
2023/10/11 01:44:47;;;;;;;48.90;25.40;;;;;;;9.60;100.00;100803.71;105782;1259;98507;-84
2023/10/11 01:47:33;;;;;;;52.40;26.20;;;;;;;9.62;100.00;100803.46;105549;1263;101412;-84
2023/10/11 01:50:19;;;;;;;47.90;25.60;;;;;;;9.63;100.00;100800.58;105802;1259;100339;-84
2023/10/11 01:53:08;;;;;;;47.10;24.50;;;;;;;9.65;100.00;100797.33;105869;1260;98074;-84
2023/10/11 01:55:55;;;;;;;52.10;26.60;;;;;;;9.68;100.00;100794.73;105761;1259;98079;-84
2023/10/11 01:58:42;;;;;;;51.30;27.30;;;;;;;9.70;100.00;100792.30;105838;1265;97989;-84
2023/10/11 02:01:38;;;;;;;51.50;25.50;;;;;;;9.72;100.00;100795.63;105765;1264;102427;-83
2023/10/11 02:04:25;;;;;;;43.60;24.00;;;;;;;9.75;100.00;100791.59;105826;1260;100429;-84
2023/10/11 02:07:12;;;;;;;49.00;25.20;;;;;;;9.76;100.00;100786.40;105994;1259;99086;-84
2023/10/11 02:09:58;;;;;;;52.20;25.00;;;;;;;9.79;100.00;100783.95;105879;1267;98001;-85
2023/10/11 02:12:46;;;;;;;54.80;26.80;;;;;;;9.81;100.00;100778.47;106030;1262;98520;-85
2023/10/11 02:15:34;;;;;;;52.60;25.00;;;;;;;9.83;100.00;100774.87;105925;1263;102054;-85
2023/10/11 02:18:20;;;;;;;50.50;26.00;;;;;;;9.85;100.00;100775.56;105655;1259;100372;-86
2023/10/11 02:21:08;;;;;;;48.00;25.00;;;;;;;9.87;100.00;100773.23;105697;1259;98851;-85
2023/10/11 02:23:56;;;;;;;50.70;25.00;;;;;;;9.88;100.00;100776.05;105878;1261;97979;-86
2023/10/11 02:26:49;;;;;;;53.20;27.10;;;;;;;9.90;100.00;100776.73;105658;1259;98444;-84
2023/10/11 02:29:35;;;;;;;50.50;25.60;;;;;;;9.92;100.00;100775.41;105527;1259;102172;-84
2023/10/11 02:32:21;;;;;;;49.40;25.90;;;;;;;9.94;100.00;100775.50;105745;1264;153558;-84
2023/10/11 02:35:06;;;;;;;50.70;24.80;;;;;;;9.96;100.00;100767.13;105872;1265;99053;-84
2023/10/11 02:37:55;;;;;;;50.60;27.90;;;;;;;9.98;100.00;100758.44;105772;1264;97911;-85
2023/10/11 02:40:41;;;;;;;58.90;27.80;;;;;;;10.01;100.00;100759.42;106161;1259;97971;-84
2023/10/11 02:43:26;;;;;;;51.90;25.50;;;;;;;10.03;100.00;100760.61;105795;1263;102155;-83
2023/10/11 02:46:11;;;;;;;50.60;27.90;;;;;;;10.04;100.00;100757.61;105909;1266;100926;-84
2023/10/11 02:49:07;;;;;;;48.90;25.60;;;;;;;10.07;100.00;100752.88;105574;1265;97991;-85
2023/10/11 02:51:52;;;;;;;53.80;26.80;;;;;;;10.08;100.00;100747.84;105710;1259;97880;-85
2023/10/11 02:54:38;;;;;;;50.40;26.90;;;;;;;10.11;100.00;100746.20;105822;1264;98019;-85
2023/10/11 02:57:25;;;;;;;51.10;26.80;;;;;;;10.13;100.00;100743.83;105720;1267;101758;-83
2023/10/11 03:00:21;;;;;;;51.20;26.60;;;;;;;10.14;100.00;100737.55;105666;1259;100805;-84
2023/10/11 03:03:10;;;;;;;47.50;25.60;;;;;;;10.16;100.00;100738.42;105781;1259;98068;-83
2023/10/11 03:05:57;;;;;;;55.80;29.10;;;;;;;10.17;100.00;100738.58;105942;1265;97964;-84
2023/10/11 03:08:44;;;;;;;49.90;26.60;;;;;;;10.20;100.00;100738.83;105677;1260;98482;-83
2023/10/11 03:11:29;;;;;;;54.80;28.40;;;;;;;10.22;100.00;100738.39;105889;1259;101542;-84
2023/10/11 03:14:15;;;;;;;53.50;27.50;;;;;;;10.25;100.00;100735.95;105909;1265;99148;-84
2023/10/11 03:17:06;;;;;;;50.50;26.60;;;;;;;10.27;100.00;100731.40;105826;1262;97983;-84
2023/10/11 03:19:54;;;;;;;56.40;27.80;;;;;;;10.28;100.00;100727.11;105732;1264;97992;-83
2023/10/11 03:22:40;;;;;;;47.60;26.30;;;;;;;10.30;100.00;100719.40;105865;1259;98492;-83
2023/10/11 03:25:29;;;;;;;55.10;26.60;;;;;;;10.32;100.00;100718.23;105925;1259;102643;-83
2023/10/11 03:28:21;;;;;;;56.50;29.20;;;;;;;10.35;100.00;100717.83;105859;1259;99982;-83
2023/10/11 03:31:07;;;;;;;51.50;26.90;;;;;;;10.37;100.00;100715.42;105809;1259;99115;-85
2023/10/11 03:33:53;;;;;;;52.30;25.00;;;;;;;10.38;100.00;100714.73;105792;1259;97865;-84
2023/10/11 03:36:43;;;;;;;51.00;27.20;;;;;;;10.39;100.00;100711.83;105956;1265;97893;-84
2023/10/11 03:39:39;;;;;;;53.00;29.40;;;;;;;10.41;100.00;100705.60;105653;1259;101445;-85
2023/10/11 03:45:34;;;;;;;48.00;26.00;;;;;;;10.42;100.00;100697.19;105785;1259;98054;-83
2023/10/11 03:48:20;;;;;;;52.80;27.60;;;;;;;10.43;100.00;100689.98;105678;1260;98025;-84
2023/10/11 03:51:06;;;;;;;53.10;26.50;;;;;;;10.43;100.00;100689.07;106024;1259;98002;-83
2023/10/11 03:53:52;;;;;;;50.60;26.60;;;;;;;10.43;100.00;100690.52;105988;1259;102171;-86
2023/10/11 03:56:45;;;;;;;54.00;27.60;;;;;;;10.43;100.00;100688.91;105721;1259;99297;-83
2023/10/11 03:59:38;;;;;;;52.00;26.10;;;;;;;10.43;100.00;100689.94;105751;1259;99089;-84
2023/10/11 04:02:23;;;;;;;46.50;25.40;;;;;;;10.44;100.00;100685.82;105790;1267;98048;-84
2023/10/11 04:05:09;;;;;;;48.10;25.10;;;;;;;10.43;100.00;100682.64;105871;1259;99533;-84
2023/10/11 04:07:56;;;;;;;48.60;25.20;;;;;;;10.43;100.00;100682.89;105759;1259;101420;-85
2023/10/11 04:10:46;;;;;;;46.80;27.20;;;;;;;10.42;100.00;100680.70;105878;1264;99203;-84
2023/10/11 04:13:37;;;;;;;46.00;26.70;;;;;;;10.41;100.00;100678.08;105760;1259;99561;-84
2023/10/11 04:16:28;;;;;;;48.60;26.90;;;;;;;10.39;100.00;100672.20;105933;1259;97884;-84
2023/10/11 04:19:14;;;;;;;41.40;23.40;;;;;;;10.39;100.00;100670.30;105812;1265;98057;-83
2023/10/11 04:22:12;;;;;;;40.20;23.10;;;;;;;10.38;100.00;100667.94;105764;1260;101436;-86
2023/10/11 04:25:06;;;;;;;40.70;23.70;;;;;;;10.37;100.00;100663.09;105823;1259;99264;-83
2023/10/11 04:28:02;;;;;;;43.00;23.30;;;;;;;10.36;100.00;100660.45;105790;1259;99024;-85
2023/10/11 04:30:51;;;;;;;44.20;24.20;;;;;;;10.35;100.00;100655.12;105743;1267;98048;-84
2023/10/11 04:33:37;;;;;;;44.50;23.00;;;;;;;10.35;100.00;100653.88;105828;1265;97982;-83
2023/10/11 04:36:23;;;;;;;41.50;22.20;;;;;;;10.34;100.00;100653.43;105907;1259;101374;-84
2023/10/11 04:39:16;;;;;;;44.20;24.40;;;;;;;10.34;100.00;100647.20;105902;1259;100525;-85
2023/10/11 04:42:02;;;;;;;39.50;22.00;;;;;;;10.33;100.00;100640.81;105872;1259;98724;-85
2023/10/11 04:44:54;;;;;;;37.90;22.90;;;;;;;10.34;100.00;100641.14;105842;1259;98111;-84
2023/10/11 04:47:50;;;;;;;40.10;24.00;;;;;;;10.34;100.00;100638.27;105782;1259;99481;-84
2023/10/11 04:50:43;;;;;;;41.20;21.60;;;;;;;10.34;100.00;100636.83;105822;1265;102897;-83
2023/10/11 04:53:33;;;;;;;40.10;22.40;;;;;;;10.34;100.00;100636.09;105821;1260;100659;-84
2023/10/11 04:59:36;;;;;;;39.60;22.30;;;;;;;10.34;100.00;100633.11;105807;1267;97984;-83
2023/10/11 05:02:32;;;;;;;40.10;22.00;;;;;;;10.34;100.00;100633.27;105829;1260;98048;-84
2023/10/11 05:05:21;;;;;;;37.90;22.10;;;;;;;10.34;100.00;100629.53;105988;1259;103133;-85
2023/10/11 05:08:20;;;;;;;38.10;22.00;;;;;;;10.34;100.00;100630.69;108083;1259;99193;-84
2023/10/11 05:11:15;;;;;;;39.60;22.10;;;;;;;10.35;100.00;100631.16;107210;1259;99070;-84
2023/10/11 05:14:10;;;;;;;42.50;25.40;;;;;;;10.36;100.00;100629.48;106249;1259;98472;-84
2023/10/11 05:22:52;;;;;;;44.50;26.00;;;;;;;10.39;100.00;100623.50;105957;1260;99177;-86
2023/10/11 05:28:58;;;;;;;44.20;26.30;;;;;;;10.43;100.00;100625.95;105883;1263;97876;-84
2023/10/11 05:32:00;;;;;;;40.20;22.50;;;;;;;10.44;100.00;100620.01;105580;1265;98447;-84
2023/10/11 05:53:30;;;;;;;38.10;23.70;;;;;;;10.67;100.00;100601.86;105850;1259;100126;-85
2023/10/11 05:56:21;;;;;;;40.90;23.20;;;;;;;10.70;100.00;100596.08;105725;1261;97994;-84
2023/10/11 05:59:10;;;;;;;39.30;23.20;;;;;;;10.75;100.00;100593.91;105807;1264;97987;-85
2023/10/11 06:01:56;;;;;;;44.50;25.60;;;;;;;10.79;100.00;100594.12;105808;1265;98504;-83
2023/10/11 06:04:42;;;;;;;45.50;26.40;;;;;;;10.84;100.00;100593.81;105676;1265;102173;-84
2023/10/11 06:07:36;;;;;;;40.10;23.80;;;;;;;10.90;100.00;100594.90;105695;1260;99091;-84
2023/10/11 06:10:22;;;;;;;44.00;26.20;;;;;;;10.96;100.00;100595.95;107536;1259;98098;-85
2023/10/11 06:13:13;;;;;;;47.50;28.60;;;;;;;11.02;100.00;100601.48;105777;1265;98062;-85
2023/10/11 06:16:02;;;;;;;42.70;25.90;;;;;;;11.07;100.00;100595.99;106468;1260;97869;-83
2023/10/11 06:22:11;;;;;;;49.70;27.80;;;;;;;11.19;100.00;100587.27;105783;1259;101503;-83
2023/10/11 06:24:58;;;;;;;45.90;30.20;;;;;;;11.26;100.00;100584.64;105671;1260;99009;-82
2023/10/11 06:30:42;;;;;;;49.10;30.20;;;;;;;11.40;100.00;100578.21;105913;1263;98096;-84
2023/10/11 06:33:28;;;;;;;47.30;29.60;;;;;;;11.47;100.00;100579.98;105779;1265;101393;-83
2023/10/11 06:36:16;;;;;;;47.00;30.20;;;;;;;11.55;100.00;100577.90;105858;1261;99185;-84
2023/10/11 06:39:19;;;;;;;45.10;28.50;;;;;;;11.63;100.00;100572.93;105790;1264;99378;-84
2023/10/11 06:42:13;;;;;;;48.30;28.40;;;;;;;11.71;100.00;100568.02;105995;1259;97991;-81
2023/10/11 06:45:05;;;;;;;48.40;28.70;;;;;;;11.79;100.00;100567.70;106267;1263;97951;-80
2023/10/11 06:47:51;;;;;;;47.60;30.70;;;;;;;11.87;100.00;100565.73;106105;1262;102825;-83
2023/10/11 06:50:38;;;;;;;45.30;27.70;;;;;;;11.95;100.00;100569.04;105859;1261;99485;-82
2023/10/11 06:53:23;;;;;;;47.50;29.40;;;;;;;12.03;100.00;100572.52;106105;1264;97886;-82
2023/10/11 06:56:16;;;;;;;40.60;27.80;;;;;;;12.10;100.00;100570.87;105930;1262;97999;-80
2023/10/11 06:59:04;;;;;;;45.20;28.60;;;;;;;12.17;100.00;100567.61;105969;1263;98632;-86
2023/10/11 07:01:52;;;;;;;45.70;27.50;;;;;;;12.24;100.00;100567.77;106292;1263;101478;-89
2023/10/11 07:04:50;;;;;;;40.00;27.10;;;;;;;12.30;100.00;100566.04;106267;1265;99929;-88
2023/10/11 07:08:19;;;;;;;42.80;27.30;;;;;;;12.37;100.00;100561.90;106596;1259;100043;-93
2023/10/11 07:12:28;;;;;;;36.20;24.60;;;;;;;12.49;100.00;100555.58;106821;1260;97995;-93
2023/10/11 07:15:13;;;;;;;41.00;25.70;;;;;;;12.60;100.00;100552.03;106792;1259;98943;-88
2023/10/11 07:18:00;;;;;;;39.80;25.70;;;;;;;12.71;100.00;100552.23;106692;1260;103603;-91
2023/10/11 07:20:48;;;;;;;38.40;26.20;;;;;;;12.81;100.00;100555.16;106497;1260;99171;-89
2023/10/11 07:23:35;;;;;;;39.70;25.40;;;;;;;12.91;100.00;100556.19;106367;1259;98437;-87
2023/10/11 07:29:16;;;;;;;36.10;25.20;;;;;;;13.07;100.00;100550.92;106497;1265;98048;-89
2023/10/11 07:32:04;;;;;;;38.10;24.10;;;;;;;13.17;100.00;100550.43;106352;1268;103243;-88
2023/10/11 07:34:54;;;;;;;34.90;23.10;;;;;;;13.25;100.00;100548.55;106352;1261;100258;-88
2023/10/11 07:37:42;;;;;;;36.50;25.40;;;;;;;13.33;100.00;100542.22;106591;1266;99088;-90
2023/10/11 07:40:41;;;;;;;37.70;24.20;;;;;;;13.41;100.00;100535.48;106531;1261;97890;-88
2023/10/11 07:43:32;;;;;;;37.80;22.70;;;;;;;13.50;100.00;100526.30;106482;1263;98051;-89
2023/10/11 07:46:17;;;;;;;32.50;23.10;;;;;;;13.60;100.00;100519.20;106183;1267;102614;-87
2023/10/11 07:49:07;;;;;;;37.00;23.70;;;;;;;13.71;100.00;100523.42;106395;1268;100429;-87
2023/10/11 07:51:58;;;;;;;35.10;23.30;;;;;;;13.83;100.00;100519.73;106156;1266;98076;-83
2023/10/11 07:54:43;;;;;;;35.50;22.60;;;;;;;13.94;100.00;100515.36;106439;1265;98065;-84
2023/10/11 07:57:29;;;;;;;32.70;22.60;;;;;;;14.05;100.00;100503.61;105968;1265;98532;-83
2023/10/11 08:00:18;;;;;;;30.30;22.10;;;;;;;14.14;100.00;100499.30;106217;1273;102555;-83
2023/10/11 08:03:04;;;;;;;33.60;23.00;;;;;;;14.23;100.00;100500.39;106140;1263;99190;-81
2023/10/11 08:05:53;;;;;;;32.70;22.60;;;;;;;14.31;100.00;100493.14;106043;1265;97967;-83
2023/10/11 08:08:40;;;;;;;31.00;22.70;;;;;;;14.38;100.00;100490.13;106060;1261;96254;-81
2023/10/11 08:11:28;;;;;;;39.40;23.60;;;;;;;14.45;100.00;100488.82;106282;1263;97885;-82
2023/10/11 08:14:19;;;;;;;32.30;22.60;;;;;;;14.53;100.00;100487.16;106132;1265;102664;-82
2023/10/11 08:17:10;;;;;;;32.10;21.80;;;;;;;14.61;100.00;100480.77;107552;1260;99837;-82
2023/10/11 08:19:56;;;;;;;29.90;20.60;;;;;;;14.69;100.00;100481.32;106148;1264;98955;-83
2023/10/11 08:22:41;;;;;;;35.50;22.40;;;;;;;14.78;100.00;100477.70;106043;1267;98175;-83
2023/10/11 08:25:29;;;;;;;31.30;21.90;;;;;;;14.88;100.00;100473.52;106150;1265;98662;-83
2023/10/11 08:28:19;;;;;;;33.10;20.90;;;;;;;15.00;100.00;100469.54;105962;1260;101402;-83
2023/10/11 08:31:09;;;;;;;30.00;20.90;;;;;;;15.09;100.00;100468.14;106208;1261;99300;-82
2023/10/11 08:33:55;;;;;;;28.40;20.80;;;;;;;15.18;100.00;100465.62;105858;1261;98512;-80
2023/10/11 08:36:43;;;;;;;29.30;20.40;;;;;;;15.28;100.00;100462.46;105991;1260;98567;-82
2023/10/11 08:39:42;;;;;;;30.90;20.70;;;;;;;15.39;100.00;100455.93;106040;1267;98485;-85
2023/10/11 08:42:30;;;;;;;30.40;21.10;;;;;;;15.50;100.00;100448.59;106013;1266;101736;-82
2023/10/11 08:45:28;;;;;;;27.90;19.70;;;;;;;15.60;100.00;100448.48;106102;1264;99213;-82
2023/10/11 08:48:17;;;;;;;30.60;19.50;;;;;;;15.72;100.00;100446.92;106178;1264;98001;-81
2023/10/11 08:51:05;;;;;;;30.60;19.30;;;;;;;15.83;100.00;100440.95;106101;1261;97941;-83
2023/10/11 08:53:54;;;;;;;27.10;18.70;;;;;;;15.92;100.00;100439.17;106079;1261;97975;-82
2023/10/11 08:56:49;;;;;;;30.00;19.50;;;;;;;16.02;100.00;100437.08;106383;1269;101438;-84
2023/10/11 08:59:48;;;;;;;28.90;18.00;;;;;;;16.11;100.00;100433.09;106317;1260;109546;-82
2023/10/11 09:02:34;;;;;;;25.30;18.10;;;;;;;16.19;100.00;100435.20;106174;1261;98053;-81
2023/10/11 09:05:32;;;;;;;28.20;17.90;;;;;;;16.28;100.00;100432.04;106157;1260;98011;-81
2023/10/11 09:08:31;;;;;;;25.50;17.70;;;;;;;16.36;100.00;100425.13;105973;1264;97864;-84
2023/10/11 09:11:32;;;;;;;24.40;18.00;;;;;;;16.43;100.00;100419.37;106126;1260;101400;-84
2023/10/11 09:14:23;;;;;;;28.10;17.10;;;;;;;16.51;100.00;100417.63;106236;1261;99215;-83
2023/10/11 09:17:19;;;;;;;30.20;16.90;;;;;;;16.60;100.00;100415.00;106020;1266;98066;-83
2023/10/11 09:20:23;;;;;;;24.00;16.40;;;;;;;16.71;100.00;100418.49;106073;1266;96570;-82
2023/10/11 09:23:11;;;;;;;26.60;16.40;;;;;;;16.81;100.00;100415.99;106124;1261;97843;-83
2023/10/11 09:25:57;;;;;;;26.90;15.20;;;;;;;16.92;100.00;100413.17;106301;1260;102877;-83
2023/10/11 09:28:47;;;;;;;20.20;15.40;;;;;;;17.04;100.00;100412.23;106211;1261;99147;-82
2023/10/11 09:31:33;;;;;;;22.30;15.00;;;;;;;17.15;100.00;100411.09;106513;1260;97895;-82
2023/10/11 09:34:19;;;;;;;20.90;13.80;;;;;;;17.26;100.00;100404.44;106318;1260;98050;-82
2023/10/11 09:37:04;;;;;;;21.80;14.40;;;;;;;17.38;100.00;100403.98;106207;1261;98763;-82
2023/10/11 09:39:51;;;;;;;19.70;13.80;;;;;;;17.51;100.00;100396.02;106173;1264;101300;-82
2023/10/11 09:42:43;;;;;;;22.90;15.00;;;;;;;17.64;100.00;100396.95;106019;1261;100422;-82
2023/10/11 09:45:42;;;;;;;18.60;13.70;;;;;;;17.74;100.00;100391.09;105913;1267;99038;-80
2023/10/11 09:48:29;;;;;;;22.00;13.00;;;;;;;17.84;100.00;100391.42;105802;1261;97955;-81
2023/10/11 09:51:16;;;;;;;19.10;12.80;;;;;;;17.93;100.00;100395.53;105707;1262;98473;-82
2023/10/11 09:54:07;;;;;;;20.30;11.50;;;;;;;18.02;100.00;100398.09;105787;1260;102134;-80
2023/10/11 09:57:06;;;;;;;20.80;12.30;;;;;;;18.10;100.00;100398.67;105941;1263;99964;-83
2023/10/11 10:00:03;;;;;;;17.90;11.60;;;;;;;18.16;100.00;100398.38;105946;1266;98002;-82
2023/10/11 10:02:54;;;;;;;15.30;11.10;;;;;;;18.22;99.51;100391.92;106060;1260;97979;-84
2023/10/11 10:06:05;;;;;;;16.70;11.10;;;;;;;18.26;99.14;100386.16;105999;1260;98415;-82
2023/10/11 10:12:13;;;;;;;18.00;10.50;;;;;;;18.35;98.39;100384.76;106193;1260;100631;-81
2023/10/11 10:15:20;;;;;;;15.80;10.20;;;;;;;18.40;98.05;100380.09;105869;1264;97970;-83
2023/10/11 10:18:05;;;;;;;16.90;10.80;;;;;;;18.45;98.14;100372.92;106013;1264;97948;-84
2023/10/11 10:21:05;;;;;;;18.00;10.40;;;;;;;18.51;97.53;100368.76;106426;1260;97749;-83
2023/10/11 10:23:51;;;;;;;16.00;10.60;;;;;;;18.56;97.08;100367.98;106366;1266;102009;-83
2023/10/11 10:26:38;;;;;;;18.30;11.30;;;;;;;18.61;96.64;100374.96;106223;1264;99074;-82
2023/10/11 10:29:59;;;;;;;16.50;9.70;;;;;;;18.67;96.37;100377.17;105928;1266;99086;-83
2023/10/11 10:33:18;;;;;;;14.30;9.70;;;;;;;18.73;96.07;100375.33;105941;1260;99285;-83
2023/10/11 10:36:22;;;;;;;18.00;10.00;;;;;;;18.77;95.70;100377.04;105808;1265;99091;-83
2023/10/11 10:42:19;;;;;;;14.70;9.70;;;;;;;18.88;95.68;100363.16;105861;1260;99259;-84
2023/10/11 10:45:07;;;;;;;17.10;9.20;;;;;;;18.93;95.44;100359.77;105992;1263;98653;-83
2023/10/11 10:47:52;;;;;;;15.90;8.50;;;;;;;18.97;94.72;100357.84;106040;1260;97997;-83
2023/10/11 10:50:52;;;;;;;15.10;8.80;;;;;;;19.01;94.09;100352.48;105811;1261;99083;-83
2023/10/11 10:53:40;;;;;;;11.90;8.30;;;;;;;19.05;94.03;100346.44;105907;1263;101410;-82
2023/10/11 10:56:26;;;;;;;14.50;7.70;;;;;;;19.08;93.95;100342.48;105933;1263;99142;-83
2023/10/11 10:59:14;;;;;;;12.70;7.50;;;;;;;19.12;93.19;100338.45;105911;1267;98982;-82
2023/10/11 11:02:10;;;;;;;14.10;7.50;;;;;;;19.15;92.61;100333.36;106015;1264;98576;-82
2023/10/11 11:04:59;;;;;;;13.10;7.50;;;;;;;19.20;92.13;100324.61;105964;1260;98125;-82
2023/10/11 11:07:47;;;;;;;12.00;7.20;;;;;;;19.26;91.74;100318.25;106211;1260;102153;-83
2023/10/11 11:10:33;;;;;;;15.30;7.40;;;;;;;19.31;91.50;100317.92;106235;1260;99128;-82
2023/10/11 11:13:18;;;;;;;15.30;7.30;;;;;;;19.35;91.71;100315.08;106549;1264;97977;-84
2023/10/11 11:16:09;;;;;;;13.10;8.40;;;;;;;19.39;91.46;100314.65;105870;1265;97961;-82
2023/10/11 11:19:00;;;;;;;;;;;;;;;19.43;91.23;100318.95;105970;1260;97881;-83
2023/10/11 11:21:46;;;;;;;16.20;7.50;;;;;;;19.46;90.94;100316.50;105932;1261;101394;-82
2023/10/11 11:24:35;;;;;;;10.40;6.80;;;;;;;19.51;90.78;100316.46;105836;1260;100381;-83
2023/10/11 11:27:29;;;;;;;9.00;6.60;;;;;;;19.55;90.40;100316.08;105982;1260;99106;-84
2023/10/11 11:30:29;;;;;;;11.00;6.30;;;;;;;19.60;90.39;100308.91;105804;1263;98054;-83
2023/10/11 11:33:35;;;;;;;12.10;6.30;;;;;;;19.65;90.55;100302.62;105921;1264;97845;-84
2023/10/11 11:36:31;;;;;;;18.60;7.30;;;;;;;19.71;89.98;100296.88;107424;1263;102801;-83
2023/10/11 11:42:23;;;;;;;11.70;5.80;;;;;;;19.85;88.69;100284.70;106133;1259;97932;-84
2023/10/11 11:45:14;;;;;;;13.00;6.90;;;;;;;19.90;88.55;100283.13;106089;1261;98062;-82
2023/10/11 11:48:00;;;;;;;10.90;6.40;;;;;;;19.95;88.30;100276.67;108209;1259;95852;-83
2023/10/11 11:50:45;;;;;;;11.20;6.00;;;;;;;20.02;87.73;100278.46;106188;1261;102060;-83
2023/10/11 11:53:31;;;;;;;12.50;6.90;;;;;;;20.08;87.56;100277.98;106204;1263;99142;-82
2023/10/11 11:56:16;;;;;;;13.30;6.60;;;;;;;20.15;87.34;100280.02;106098;1265;97870;-83
2023/10/11 11:59:02;;;;;;;11.40;6.40;;;;;;;20.22;87.03;100284.95;106052;1260;98277;-83
2023/10/11 12:01:49;;;;;;;13.40;7.30;;;;;;;20.30;86.29;100287.96;106034;1259;97877;-82
2023/10/11 12:04:36;;;;;;;9.80;5.50;;;;;;;20.37;85.55;100289.19;106153;1260;102048;-82
2023/10/11 12:07:22;;;;;;;9.70;6.10;;;;;;;20.43;84.50;100290.11;106152;1259;99800;-82
2023/10/11 12:10:23;;;;;;;15.20;6.40;;;;;;;20.50;83.88;100280.33;106065;1264;98197;-82
2023/10/11 12:13:09;;;;;;;15.10;5.50;;;;;;;20.56;83.29;100274.66;106250;1259;98129;-81
2023/10/11 12:15:54;;;;;;;11.70;5.80;;;;;;;20.61;82.23;100269.38;106201;1261;99574;-82
2023/10/11 12:18:44;;;;;;;13.50;6.30;;;;;;;20.64;81.53;100271.13;106008;1259;101325;-81
2023/10/11 12:21:33;;;;;;;15.80;6.50;;;;;;;20.67;81.28;100271.37;106034;1262;99182;-82
2023/10/11 12:24:20;;;;;;;14.60;6.00;;;;;;;20.69;80.32;100273.23;106153;1260;99033;-82
2023/10/11 12:27:06;;;;;;;15.90;5.60;;;;;;;20.71;79.39;100266.52;105946;1265;97785;-81
2023/10/11 12:29:51;;;;;;;14.60;5.50;;;;;;;20.73;79.21;100264.02;106177;1264;98015;-82
2023/10/11 12:32:36;;;;;;;14.10;5.40;;;;;;;20.75;78.22;100265.23;106092;1259;101353;-82
2023/10/11 12:35:23;;;;;;;9.60;4.90;;;;;;;20.78;78.13;100263.61;106142;1259;100535;-83
2023/10/11 12:38:12;;;;;;;8.90;5.70;;;;;;;20.82;77.56;100266.32;106159;1265;99546;-83
2023/10/11 12:40:57;;;;;;;10.90;5.40;;;;;;;20.86;76.66;100260.41;106276;1266;97995;-83
2023/10/11 12:43:46;;;;;;;12.60;5.90;;;;;;;20.89;76.13;100254.60;106208;1259;97925;-82
2023/10/11 12:46:34;;;;;;;10.80;5.40;;;;;;;20.91;75.61;100251.34;106095;1260;101390;-83
2023/10/11 12:49:19;;;;;;;13.90;5.70;;;;;;;20.92;75.35;100254.39;107253;1263;100883;-83
2023/10/11 12:52:05;;;;;;;11.80;5.40;;;;;;;20.93;74.58;100255.11;106152;1263;98038;-83
2023/10/11 12:54:52;;;;;;;9.90;5.60;;;;;;;20.95;74.20;100256.70;106055;1260;99240;-84
2023/10/11 12:57:39;;;;;;;14.20;6.10;;;;;;;20.98;74.72;100253.46;105826;1259;98406;-83
2023/10/11 13:00:31;;;;;;;10.70;5.70;;;;;;;21.01;74.52;100252.82;106016;1260;101927;-84
2023/10/11 13:03:28;;;;;;;12.90;5.50;;;;;;;21.01;73.69;100251.78;106100;1260;99137;-83
2023/10/11 13:06:14;;;;;;;8.20;5.00;;;;;;;20.98;73.50;100255.64;108064;1260;97800;-84
2023/10/11 13:08:59;;;;;;;11.00;5.10;;;;;;;20.96;73.17;100254.42;108095;1259;96410;-82
2023/10/11 13:11:45;;;;;;;10.50;5.70;;;;;;;20.93;73.20;100257.08;108096;1260;95602;-82
2023/10/11 13:14:31;;;;;;;9.10;5.50;;;;;;;20.92;73.45;100263.00;108099;1260;101482;-84
2023/10/11 13:17:16;;;;;;;10.90;6.10;;;;;;;20.91;73.66;100252.00;107310;1261;100416;-84
2023/10/11 13:20:09;;;;;;;11.50;6.00;;;;;;;20.90;73.29;100246.86;106063;1263;99053;-82
2023/10/11 13:22:55;;;;;;;11.50;5.50;;;;;;;20.91;73.30;100246.11;105910;1260;99491;-82
2023/10/11 13:25:44;;;;;;;11.80;5.40;;;;;;;20.92;73.02;100244.97;105741;1259;98842;-82
2023/10/11 13:28:33;;;;;;;12.00;5.60;;;;;;;20.92;73.06;100237.34;105874;1264;101476;-82
2023/10/11 13:31:18;;;;;;;9.80;5.50;;;;;;;20.91;73.30;100237.84;106046;1259;99092;-82
2023/10/11 13:34:05;;;;;;;10.90;6.20;;;;;;;20.90;73.25;100237.94;105959;1259;97933;-82